Airfield :
LOGIN :

Register | Disclaimer

   EN    FR    IT 

 










Legend :    VFR   Marginal VFR   IFR   Intensive IFR   Very Intensive IFR
Visi :
Ceiling :
>= 8 km
>= 3000ft
5 to 8 km
1000 to 3000 ft
1500m to 5 km
500 to 1000 ft
800 to 1500m
200 to 500 ft
< 800m
< 200 ft
Symbols :   Thunderstorms  Fog  Heavy snow  Heavy precipitations  Wind > 20 kt
SIGMETs :     Misc.  Thunderstorms  Icing  Turbulence  Mountain Waves  Volcanic Ashes






- Airport Elevation : 204 ft
- IATA code : AGF


LFBA - Agen

CURRENT METAR :
  • 231100Z AUTO 25014KT 9000 RA FEW023/// SCT029/// OVC045/// ///TCU 08/07 Q1003 TEMPO 27015G25KT 4000 RA FEW020CB OVC030

EXPIRED METARs :
  • 231030Z AUTO 26013G23KT 230V290 7000 RA FEW018/// SCT025/// BKN032/// ///CB 08/06 Q1004 TEMPO 4000 RA OVC030
  • 231000Z AUTO 25015KT 9000 RA FEW033/// OVC041/// ///TCU 08/06 Q1003 TEMPO 27015G25KT 4000 RA OVC030
  • 230930Z AUTO 24015KT 210V270 9000 RA SCT039/// BKN046/// OVC054/// ///TCU 08/06 Q1003 TEMPO 27015G25KT 4000 RA OVC030
  • 230900Z AUTO VRB04KT 9000 RA SCT032/// BKN039/// OVC048/// ///TCU 07/06 Q1004 TEMPO 27015G25KT 4000 RA OVC030
  • 230830Z AUTO 25004KT 200V280 7000 RA BKN040/// BKN052/// OVC064/// ///CB 07/05 Q1004 TEMPO 27015G25KT 4000 RA OVC030

TAF AMD TAF LFBA
Valid from the 23 at 10:00 until the 23 at 18:00 UTC


231038Z 2310/2318 27010KT 9999 -RA BKN050
TEMPO 2310/2315 27015G25KT 4000 RA FEW020CB OVC030



MET'MAP, your aeronautical weather chart ! - Copyright ORBIFLY December 2007 - Disclaimer

ORBIFLY MET'MAP TEAM :

Programming & Development : Alexandra Zaïnal
Concept & original design : Baudouin d'Aumeries
Assistance for programming : Marc-Olivier Méhu
Technical & hardware support : Manuel Goepfert

Contact : metmap@orbifly.com




SOURCES & CREDITS :

   NOAA